TKJ4109 LTCO-LTAC
Flight info
| Callsign | TKJ4109 |
|---|---|
| Flight time | 1h 26m |
| Altitude | 38000 |
| Route | INBAT UL851 ERZ UA4 GURBU |
| Aircraft | B738/M-SDE2E3FGHIRWXY/LB1 |
Departure
| Time | 2026-05-08 06:01 |
|---|---|
| Airport | Ağrı Airport (LTCO) |
Arrival
| Time | 2026-05-08 07:27 |
|---|---|
| Airport | Esenboğa International Airport (LTAC) |
| Time | Latitude | Longitude | Altitude | Speed | Heading |
|---|---|---|---|---|---|
| 2026-05-08 05:43 | 39.65484 | 43.02187 | 5469 ft | 0 kts | 220° |
| 2026-05-08 05:56 | 39.65483 | 43.02187 | 5469 ft | 1 kts | 207° |
| 2026-05-08 05:57 | 39.65478 | 43.02193 | 5470 ft | 1 kts | 127° |
| 2026-05-08 05:57 | 39.65485 | 43.02228 | 5470 ft | 7 kts | 65° |
| 2026-05-08 05:57 | 39.65512 | 43.02315 | 5469 ft | 12 kts | 73° |
| 2026-05-08 05:57 | 39.65538 | 43.02423 | 5471 ft | 12 kts | 73° |
| 2026-05-08 05:58 | 39.65560 | 43.02531 | 5468 ft | 12 kts | 86° |
| 2026-05-08 05:58 | 39.65502 | 43.02596 | 5469 ft | 12 kts | 164° |
| 2026-05-08 05:58 | 39.65423 | 43.02626 | 5471 ft | 12 kts | 167° |
| 2026-05-08 05:58 | 39.65344 | 43.02649 | 5475 ft | 11 kts | 167° |
| 2026-05-08 05:59 | 39.65265 | 43.02673 | 5477 ft | 13 kts | 167° |
| 2026-05-08 05:59 | 39.65163 | 43.02712 | 5482 ft | 17 kts | 162° |
| 2026-05-08 05:59 | 39.65031 | 43.02764 | 5486 ft | 22 kts | 163° |
| 2026-05-08 05:59 | 39.64870 | 43.02821 | 5490 ft | 26 kts | 165° |
| 2026-05-08 06:00 | 39.64687 | 43.02887 | 5494 ft | 26 kts | 164° |
| 2026-05-08 06:00 | 39.64587 | 43.02887 | 5496 ft | 13 kts | 138° |
| 2026-05-08 06:00 | 39.64608 | 43.02926 | 5496 ft | 5 kts | 354° |
| 2026-05-08 06:00 | 39.64647 | 43.02909 | 5495 ft | 12 kts | 343° |
| 2026-05-08 06:01 | 39.64973 | 43.02792 | 5488 ft | 85 kts | 345° |
| 2026-05-08 06:01 | 39.65762 | 43.02510 | 5463 ft | 148 kts | 344° |
| 2026-05-08 06:01 | 39.66913 | 43.02106 | 5600 ft | 187 kts | 345° |
| 2026-05-08 06:01 | 39.68230 | 43.01666 | 6205 ft | 202 kts | 345° |
| 2026-05-08 06:02 | 39.69625 | 43.01238 | 6862 ft | 210 kts | 347° |
| 2026-05-08 06:02 | 39.71078 | 43.00867 | 7465 ft | 214 kts | 349° |
| 2026-05-08 06:02 | 39.72525 | 43.00574 | 8241 ft | 205 kts | 352° |
| 2026-05-08 06:02 | 39.73913 | 43.00332 | 8954 ft | 203 kts | 348° |
| 2026-05-08 06:03 | 39.75356 | 42.99852 | 9131 ft | 226 kts | 335° |
| 2026-05-08 06:03 | 39.76524 | 42.98421 | 9316 ft | 246 kts | 296° |
| 2026-05-08 06:03 | 39.76775 | 42.96188 | 9660 ft | 259 kts | 264° |
| 2026-05-08 06:03 | 39.76494 | 42.93828 | 10058 ft | 274 kts | 262° |
| 2026-05-08 06:04 | 39.76171 | 42.91268 | 10236 ft | 300 kts | 262° |
| 2026-05-08 06:04 | 39.75833 | 42.88477 | 10445 ft | 325 kts | 262° |
| 2026-05-08 06:04 | 39.75494 | 42.85513 | 10953 ft | 336 kts | 263° |
| 2026-05-08 06:04 | 39.75164 | 42.82485 | 11709 ft | 340 kts | 263° |
| 2026-05-08 06:05 | 39.74842 | 42.79431 | 12531 ft | 342 kts | 263° |
| 2026-05-08 06:05 | 39.74524 | 42.76359 | 13325 ft | 345 kts | 263° |
| 2026-05-08 06:05 | 39.74206 | 42.73254 | 14090 ft | 349 kts | 263° |
| 2026-05-08 06:05 | 39.73885 | 42.70107 | 14767 ft | 353 kts | 263° |
| 2026-05-08 06:06 | 39.73561 | 42.66935 | 15450 ft | 356 kts | 263° |
| 2026-05-08 06:06 | 39.73232 | 42.63729 | 16128 ft | 360 kts | 263° |
| 2026-05-08 06:06 | 39.72899 | 42.60487 | 16803 ft | 364 kts | 264° |
| 2026-05-08 06:06 | 39.72793 | 42.57194 | 17453 ft | 367 kts | 274° |
| 2026-05-08 06:07 | 39.73156 | 42.53919 | 18110 ft | 369 kts | 283° |
| 2026-05-08 06:07 | 39.73724 | 42.50660 | 18718 ft | 373 kts | 284° |
| 2026-05-08 06:07 | 39.74320 | 42.47376 | 19372 ft | 374 kts | 284° |
| 2026-05-08 06:07 | 39.74920 | 42.44076 | 19961 ft | 377 kts | 284° |
| 2026-05-08 06:08 | 39.75519 | 42.40745 | 20533 ft | 380 kts | 284° |
| 2026-05-08 06:08 | 39.76116 | 42.37378 | 21104 ft | 384 kts | 284° |
| 2026-05-08 06:08 | 39.76712 | 42.33984 | 21667 ft | 387 kts | 284° |
| 2026-05-08 06:08 | 39.77306 | 42.30568 | 22232 ft | 390 kts | 284° |
| 2026-05-08 06:09 | 39.77903 | 42.27117 | 22777 ft | 392 kts | 284° |
| 2026-05-08 06:09 | 39.78503 | 42.23640 | 23327 ft | 395 kts | 284° |
| 2026-05-08 06:09 | 39.79106 | 42.20134 | 23834 ft | 399 kts | 284° |
| 2026-05-08 06:09 | 39.79714 | 42.16593 | 24211 ft | 403 kts | 284° |
| 2026-05-08 06:10 | 39.80318 | 42.13071 | 24641 ft | 406 kts | 284° |
| 2026-05-08 06:10 | 39.80931 | 42.09485 | 25099 ft | 407 kts | 284° |
| 2026-05-08 06:10 | 39.81545 | 42.05885 | 25535 ft | 409 kts | 284° |
| 2026-05-08 06:10 | 39.82162 | 42.02259 | 25951 ft | 412 kts | 284° |
| 2026-05-08 06:11 | 39.82782 | 41.98612 | 26360 ft | 414 kts | 284° |
| 2026-05-08 06:11 | 39.83405 | 41.94942 | 26762 ft | 416 kts | 284° |
| 2026-05-08 06:11 | 39.84030 | 41.91252 | 27179 ft | 419 kts | 284° |
| 2026-05-08 06:11 | 39.84656 | 41.87544 | 27570 ft | 421 kts | 284° |
| 2026-05-08 06:12 | 39.85287 | 41.83802 | 27856 ft | 426 kts | 284° |
| 2026-05-08 06:12 | 39.85924 | 41.80025 | 28180 ft | 429 kts | 284° |
| 2026-05-08 06:12 | 39.86560 | 41.76235 | 28566 ft | 430 kts | 284° |
| 2026-05-08 06:12 | 39.87199 | 41.72422 | 28989 ft | 430 kts | 284° |
| 2026-05-08 06:13 | 39.87832 | 41.68622 | 29446 ft | 430 kts | 284° |
| 2026-05-08 06:13 | 39.88466 | 41.64806 | 29758 ft | 433 kts | 284° |
| 2026-05-08 06:13 | 39.89106 | 41.60950 | 30044 ft | 437 kts | 284° |
| 2026-05-08 06:13 | 39.89747 | 41.57079 | 30340 ft | 439 kts | 284° |
| 2026-05-08 06:14 | 39.90388 | 41.53201 | 30613 ft | 440 kts | 284° |
| 2026-05-08 06:14 | 39.91031 | 41.49297 | 30961 ft | 440 kts | 284° |
| 2026-05-08 06:14 | 39.91669 | 41.45409 | 31329 ft | 439 kts | 284° |
| 2026-05-08 06:14 | 39.92306 | 41.41527 | 31657 ft | 438 kts | 283° |
| 2026-05-08 06:15 | 39.92943 | 41.37639 | 31954 ft | 439 kts | 283° |
| 2026-05-08 06:15 | 39.93578 | 41.33749 | 32278 ft | 439 kts | 283° |
| 2026-05-08 06:15 | 39.94213 | 41.29862 | 32609 ft | 438 kts | 283° |
| 2026-05-08 06:15 | 39.94845 | 41.25976 | 32928 ft | 438 kts | 283° |
| 2026-05-08 06:16 | 39.95466 | 41.22090 | 33249 ft | 439 kts | 282° |
| 2026-05-08 06:16 | 39.95802 | 41.18134 | 33515 ft | 441 kts | 272° |
| 2026-05-08 06:16 | 39.95807 | 41.14132 | 33838 ft | 441 kts | 271° |
| 2026-05-08 06:16 | 39.95772 | 41.10140 | 34163 ft | 440 kts | 271° |
| 2026-05-08 06:17 | 39.95706 | 41.02161 | 34695 ft | 439 kts | 271° |
| 2026-05-08 06:17 | 39.95689 | 40.98201 | 35003 ft | 436 kts | 271° |
| 2026-05-08 06:17 | 39.95678 | 40.94300 | 35244 ft | 436 kts | 271° |
| 2026-05-08 06:18 | 39.95670 | 40.90344 | 35455 ft | 437 kts | 271° |
| 2026-05-08 06:18 | 39.95662 | 40.86389 | 35688 ft | 436 kts | 271° |
| 2026-05-08 06:18 | 39.95653 | 40.82443 | 35946 ft | 435 kts | 271° |
| 2026-05-08 06:18 | 39.95642 | 40.78502 | 36190 ft | 435 kts | 271° |
| 2026-05-08 06:19 | 39.95630 | 40.74557 | 36356 ft | 436 kts | 271° |
| 2026-05-08 06:19 | 39.95617 | 40.70605 | 36568 ft | 436 kts | 271° |
| 2026-05-08 06:19 | 39.95601 | 40.66662 | 36825 ft | 434 kts | 271° |
| 2026-05-08 06:19 | 39.95585 | 40.62733 | 37084 ft | 433 kts | 271° |
| 2026-05-08 06:20 | 39.95569 | 40.58810 | 37288 ft | 433 kts | 271° |
| 2026-05-08 06:20 | 39.95551 | 40.54882 | 37509 ft | 432 kts | 271° |
| 2026-05-08 06:20 | 39.95533 | 40.50977 | 37794 ft | 430 kts | 271° |
| 2026-05-08 06:20 | 39.95514 | 40.47085 | 37979 ft | 430 kts | 270° |
| 2026-05-08 06:21 | 39.95494 | 40.43191 | 38117 ft | 431 kts | 270° |
| 2026-05-08 06:21 | 39.95472 | 40.39280 | 38205 ft | 431 kts | 270° |
| 2026-05-08 06:21 | 39.95432 | 40.32783 | 38225 ft | 432 kts | 271° |
| 2026-05-08 06:22 | 39.95380 | 40.24948 | 38218 ft | 432 kts | 270° |
| 2026-05-08 06:22 | 39.95322 | 40.17129 | 38218 ft | 431 kts | 270° |
| 2026-05-08 06:23 | 39.95260 | 40.09304 | 38224 ft | 431 kts | 270° |
| 2026-05-08 06:23 | 39.95192 | 40.01499 | 38210 ft | 430 kts | 271° |
| 2026-05-08 06:24 | 39.95120 | 39.93757 | 38216 ft | 430 kts | 271° |
| 2026-05-08 06:24 | 39.95051 | 39.85965 | 38220 ft | 430 kts | 271° |
| 2026-05-08 06:25 | 39.94990 | 39.78174 | 38216 ft | 430 kts | 271° |
| 2026-05-08 06:25 | 39.94922 | 39.70391 | 38239 ft | 430 kts | 271° |
| 2026-05-08 06:26 | 39.94849 | 39.62601 | 38223 ft | 430 kts | 271° |
| 2026-05-08 06:26 | 39.94766 | 39.54811 | 38230 ft | 430 kts | 271° |
| 2026-05-08 06:27 | 39.94661 | 39.47019 | 38229 ft | 430 kts | 271° |
| 2026-05-08 06:27 | 39.94549 | 39.39240 | 38230 ft | 430 kts | 271° |
| 2026-05-08 06:28 | 39.94435 | 39.31457 | 38225 ft | 429 kts | 271° |
| 2026-05-08 06:28 | 39.94317 | 39.23683 | 38224 ft | 429 kts | 271° |
| 2026-05-08 06:29 | 39.94194 | 39.15915 | 38231 ft | 429 kts | 271° |
| 2026-05-08 06:29 | 39.94065 | 39.08141 | 38217 ft | 428 kts | 271° |
| 2026-05-08 06:30 | 39.93922 | 39.00376 | 38221 ft | 428 kts | 271° |
| 2026-05-08 06:30 | 39.93777 | 38.92675 | 38221 ft | 428 kts | 271° |
| 2026-05-08 06:31 | 39.93530 | 38.84924 | 38225 ft | 429 kts | 268° |
| 2026-05-08 06:31 | 39.93006 | 38.77187 | 38223 ft | 429 kts | 267° |
| 2026-05-08 06:32 | 39.92447 | 38.69453 | 38227 ft | 429 kts | 267° |
| 2026-05-08 06:32 | 39.91909 | 38.61708 | 38214 ft | 429 kts | 268° |
| 2026-05-08 06:33 | 39.91381 | 38.53961 | 38223 ft | 430 kts | 268° |
| 2026-05-08 06:33 | 39.90852 | 38.46208 | 38225 ft | 430 kts | 268° |
| 2026-05-08 06:34 | 39.90317 | 38.38460 | 38226 ft | 430 kts | 267° |
| 2026-05-08 06:34 | 39.89776 | 38.30710 | 38226 ft | 429 kts | 267° |
| 2026-05-08 06:35 | 39.89230 | 38.22966 | 38221 ft | 430 kts | 267° |
| 2026-05-08 06:35 | 39.88679 | 38.15217 | 38226 ft | 430 kts | 268° |
| 2026-05-08 06:36 | 39.88123 | 38.07475 | 38226 ft | 430 kts | 267° |
| 2026-05-08 06:36 | 39.87563 | 37.99726 | 38218 ft | 430 kts | 267° |
| 2026-05-08 06:37 | 39.86995 | 37.91979 | 38216 ft | 430 kts | 267° |
| 2026-05-08 06:37 | 39.86422 | 37.84227 | 38228 ft | 430 kts | 267° |
| 2026-05-08 06:38 | 39.85844 | 37.76476 | 38212 ft | 430 kts | 267° |
| 2026-05-08 06:38 | 39.85261 | 37.68725 | 38212 ft | 430 kts | 267° |
| 2026-05-08 06:39 | 39.84674 | 37.60975 | 38214 ft | 430 kts | 267° |
| 2026-05-08 06:39 | 39.84086 | 37.53282 | 38220 ft | 430 kts | 267° |
| 2026-05-08 06:40 | 39.83489 | 37.45532 | 38216 ft | 430 kts | 267° |
| 2026-05-08 06:40 | 39.82879 | 37.37788 | 38218 ft | 430 kts | 267° |
| 2026-05-08 06:41 | 39.82256 | 37.30050 | 38227 ft | 429 kts | 267° |
| 2026-05-08 06:41 | 39.81629 | 37.22327 | 38247 ft | 429 kts | 267° |
| 2026-05-08 06:42 | 39.81000 | 37.14617 | 38263 ft | 429 kts | 267° |
| 2026-05-08 06:42 | 39.80366 | 37.06910 | 38281 ft | 428 kts | 267° |
| 2026-05-08 06:43 | 39.79729 | 36.99214 | 38287 ft | 428 kts | 267° |
| 2026-05-08 06:43 | 39.79101 | 36.91529 | 38293 ft | 427 kts | 269° |
| 2026-05-08 06:44 | 39.79538 | 36.83931 | 38287 ft | 420 kts | 283° |
| 2026-05-08 06:44 | 39.80615 | 36.76470 | 38287 ft | 420 kts | 283° |
| 2026-05-08 06:45 | 39.81671 | 36.68997 | 38269 ft | 419 kts | 283° |
| 2026-05-08 06:45 | 39.82685 | 36.61579 | 38272 ft | 419 kts | 283° |
| 2026-05-08 06:46 | 39.83693 | 36.54100 | 38214 ft | 420 kts | 283° |
| 2026-05-08 06:46 | 39.84698 | 36.46609 | 38217 ft | 420 kts | 283° |
| 2026-05-08 06:47 | 39.85699 | 36.39120 | 38219 ft | 420 kts | 283° |
| 2026-05-08 06:47 | 39.86750 | 36.31639 | 38208 ft | 420 kts | 284° |
| 2026-05-08 06:48 | 39.87881 | 36.24185 | 38208 ft | 420 kts | 283° |
| 2026-05-08 06:48 | 39.88875 | 36.16683 | 38211 ft | 420 kts | 282° |
| 2026-05-08 06:49 | 39.89847 | 36.09185 | 38205 ft | 420 kts | 283° |
| 2026-05-08 06:49 | 39.90834 | 36.01694 | 38206 ft | 419 kts | 283° |
| 2026-05-08 06:50 | 39.91814 | 35.94265 | 38214 ft | 419 kts | 283° |
| 2026-05-08 06:50 | 39.92791 | 35.86733 | 38211 ft | 419 kts | 282° |
| 2026-05-08 06:51 | 39.93743 | 35.79311 | 38208 ft | 418 kts | 283° |
| 2026-05-08 06:51 | 39.94697 | 35.71843 | 38202 ft | 417 kts | 283° |
| 2026-05-08 06:52 | 39.95651 | 35.64344 | 38201 ft | 416 kts | 282° |
| 2026-05-08 06:52 | 39.96586 | 35.56959 | 38200 ft | 416 kts | 282° |
| 2026-05-08 06:53 | 39.97521 | 35.49531 | 38202 ft | 415 kts | 283° |
| 2026-05-08 06:53 | 39.98452 | 35.42110 | 38211 ft | 414 kts | 282° |
| 2026-05-08 06:54 | 39.99374 | 35.34694 | 38196 ft | 414 kts | 282° |
| 2026-05-08 06:54 | 40.00260 | 35.27279 | 38204 ft | 414 kts | 282° |
| 2026-05-08 06:55 | 40.01132 | 35.19861 | 38183 ft | 414 kts | 282° |
| 2026-05-08 06:55 | 40.02001 | 35.12452 | 38191 ft | 413 kts | 282° |
| 2026-05-08 06:56 | 40.02866 | 35.05046 | 38193 ft | 412 kts | 282° |
| 2026-05-08 06:56 | 40.03726 | 34.97654 | 38204 ft | 412 kts | 282° |
| 2026-05-08 06:57 | 40.04583 | 34.90249 | 38202 ft | 413 kts | 282° |
| 2026-05-08 06:57 | 40.05435 | 34.82843 | 38195 ft | 411 kts | 282° |
| 2026-05-08 06:58 | 40.05854 | 34.79180 | 37992 ft | 406 kts | 282° |
| 2026-05-08 06:58 | 40.06264 | 34.75571 | 37785 ft | 396 kts | 282° |
| 2026-05-08 06:58 | 40.06664 | 34.72040 | 37385 ft | 391 kts | 282° |
| 2026-05-08 06:58 | 40.07060 | 34.68550 | 37047 ft | 386 kts | 282° |
| 2026-05-08 06:59 | 40.07452 | 34.65089 | 36675 ft | 383 kts | 282° |
| 2026-05-08 06:59 | 40.07839 | 34.61668 | 36314 ft | 379 kts | 282° |
| 2026-05-08 06:59 | 40.08221 | 34.58281 | 35964 ft | 376 kts | 282° |
| 2026-05-08 06:59 | 40.08598 | 34.54922 | 35600 ft | 373 kts | 283° |
| 2026-05-08 07:00 | 40.08973 | 34.51586 | 35225 ft | 370 kts | 282° |
| 2026-05-08 07:00 | 40.09344 | 34.48276 | 34876 ft | 367 kts | 282° |
| 2026-05-08 07:00 | 40.09710 | 34.44985 | 34518 ft | 364 kts | 283° |
| 2026-05-08 07:00 | 40.10073 | 34.41722 | 34160 ft | 362 kts | 283° |
| 2026-05-08 07:01 | 40.10432 | 34.38478 | 33764 ft | 359 kts | 283° |
| 2026-05-08 07:01 | 40.10784 | 34.35297 | 33383 ft | 357 kts | 283° |
| 2026-05-08 07:01 | 40.11136 | 34.32108 | 33041 ft | 353 kts | 283° |
| 2026-05-08 07:01 | 40.11488 | 34.28935 | 32564 ft | 354 kts | 280° |
| 2026-05-08 07:02 | 40.11832 | 34.25781 | 32330 ft | 348 kts | 283° |
| 2026-05-08 07:02 | 40.12174 | 34.22651 | 31970 ft | 352 kts | 283° |
| 2026-05-08 07:02 | 40.12524 | 34.19461 | 31637 ft | 357 kts | 283° |
| 2026-05-08 07:02 | 40.12875 | 34.16250 | 31262 ft | 356 kts | 282° |
| 2026-05-08 07:03 | 40.13221 | 34.13052 | 30912 ft | 353 kts | 282° |
| 2026-05-08 07:03 | 40.13563 | 34.09887 | 30572 ft | 351 kts | 283° |
| 2026-05-08 07:03 | 40.13903 | 34.06736 | 30230 ft | 348 kts | 283° |
| 2026-05-08 07:03 | 40.14240 | 34.03613 | 29834 ft | 346 kts | 283° |
| 2026-05-08 07:04 | 40.14573 | 34.00516 | 29477 ft | 342 kts | 283° |
| 2026-05-08 07:04 | 40.14900 | 33.97456 | 29100 ft | 339 kts | 283° |
| 2026-05-08 07:04 | 40.15234 | 33.94429 | 28760 ft | 334 kts | 284° |
| 2026-05-08 07:04 | 40.15640 | 33.91465 | 28419 ft | 329 kts | 285° |
| 2026-05-08 07:05 | 40.16062 | 33.88531 | 28065 ft | 327 kts | 285° |
| 2026-05-08 07:05 | 40.16474 | 33.85618 | 27723 ft | 325 kts | 285° |
| 2026-05-08 07:05 | 40.16856 | 33.82719 | 27382 ft | 324 kts | 281° |
| 2026-05-08 07:05 | 40.17004 | 33.79771 | 27047 ft | 324 kts | 277° |
| 2026-05-08 07:06 | 40.17037 | 33.76831 | 26716 ft | 323 kts | 276° |
| 2026-05-08 07:06 | 40.17052 | 33.73904 | 26384 ft | 321 kts | 276° |
| 2026-05-08 07:06 | 40.17074 | 33.70992 | 26047 ft | 319 kts | 276° |
| 2026-05-08 07:06 | 40.17107 | 33.68099 | 25727 ft | 318 kts | 276° |
| 2026-05-08 07:07 | 40.17149 | 33.65217 | 25396 ft | 316 kts | 276° |
| 2026-05-08 07:07 | 40.17195 | 33.62350 | 25078 ft | 315 kts | 276° |
| 2026-05-08 07:07 | 40.17245 | 33.59492 | 24753 ft | 314 kts | 276° |
| 2026-05-08 07:07 | 40.17294 | 33.56643 | 24419 ft | 313 kts | 276° |
| 2026-05-08 07:08 | 40.17344 | 33.53797 | 24103 ft | 312 kts | 276° |
| 2026-05-08 07:08 | 40.17393 | 33.50959 | 23757 ft | 312 kts | 276° |
| 2026-05-08 07:08 | 40.17424 | 33.49080 | 23500 ft | 312 kts | 276° |
| 2026-05-08 07:08 | 40.17361 | 33.45293 | 23002 ft | 315 kts | 262° |
| 2026-05-08 07:09 | 40.16881 | 33.43485 | 22798 ft | 320 kts | 248° |
| 2026-05-08 07:09 | 40.15568 | 33.41120 | 22467 ft | 328 kts | 228° |
| 2026-05-08 07:09 | 40.13850 | 33.39143 | 22165 ft | 330 kts | 225° |
| 2026-05-08 07:09 | 40.12098 | 33.37200 | 21821 ft | 332 kts | 225° |
| 2026-05-08 07:10 | 40.10322 | 33.35210 | 21502 ft | 340 kts | 225° |
| 2026-05-08 07:10 | 40.08521 | 33.33171 | 21196 ft | 345 kts | 225° |
| 2026-05-08 07:10 | 40.06712 | 33.31117 | 20809 ft | 344 kts | 225° |
| 2026-05-08 07:10 | 40.04912 | 33.29072 | 20474 ft | 342 kts | 225° |
| 2026-05-08 07:11 | 40.03125 | 33.27044 | 20143 ft | 340 kts | 224° |
| 2026-05-08 07:11 | 40.01323 | 33.25064 | 19824 ft | 338 kts | 221° |
| 2026-05-08 07:11 | 39.99437 | 33.23226 | 19493 ft | 337 kts | 219° |
| 2026-05-08 07:11 | 39.97538 | 33.21449 | 19171 ft | 336 kts | 218° |
| 2026-05-08 07:12 | 39.95642 | 33.19680 | 18849 ft | 334 kts | 218° |
| 2026-05-08 07:12 | 39.93755 | 33.17906 | 18507 ft | 334 kts | 218° |
| 2026-05-08 07:12 | 39.91882 | 33.16132 | 18149 ft | 332 kts | 219° |
| 2026-05-08 07:12 | 39.90020 | 33.14362 | 17796 ft | 331 kts | 219° |
| 2026-05-08 07:13 | 39.88166 | 33.12597 | 17459 ft | 329 kts | 219° |
| 2026-05-08 07:13 | 39.86319 | 33.10839 | 17128 ft | 327 kts | 219° |
| 2026-05-08 07:13 | 39.84487 | 33.09097 | 16813 ft | 325 kts | 219° |
| 2026-05-08 07:13 | 39.82673 | 33.07372 | 16485 ft | 324 kts | 219° |
| 2026-05-08 07:14 | 39.80861 | 33.05650 | 16161 ft | 322 kts | 219° |
| 2026-05-08 07:14 | 39.79079 | 33.03957 | 15859 ft | 320 kts | 219° |
| 2026-05-08 07:14 | 39.77293 | 33.02263 | 15545 ft | 318 kts | 219° |
| 2026-05-08 07:14 | 39.75507 | 33.00570 | 15222 ft | 317 kts | 219° |
| 2026-05-08 07:15 | 39.73731 | 32.98887 | 14954 ft | 314 kts | 219° |
| 2026-05-08 07:15 | 39.71978 | 32.97229 | 14712 ft | 310 kts | 219° |
| 2026-05-08 07:15 | 39.70238 | 32.95582 | 14465 ft | 307 kts | 219° |
| 2026-05-08 07:15 | 39.68515 | 32.93952 | 14238 ft | 306 kts | 219° |
| 2026-05-08 07:16 | 39.66793 | 32.92324 | 14000 ft | 306 kts | 219° |
| 2026-05-08 07:16 | 39.65082 | 32.90707 | 13743 ft | 305 kts | 219° |
| 2026-05-08 07:16 | 39.63480 | 32.88941 | 13442 ft | 299 kts | 236° |
| 2026-05-08 07:16 | 39.62617 | 32.86568 | 13183 ft | 287 kts | 262° |
| 2026-05-08 07:17 | 39.62589 | 32.84045 | 12978 ft | 276 kts | 282° |
| 2026-05-08 07:17 | 39.63182 | 32.81724 | 12714 ft | 269 kts | 302° |
| 2026-05-08 07:17 | 39.64219 | 32.79769 | 12634 ft | 258 kts | 311° |
| 2026-05-08 07:17 | 39.65625 | 32.78430 | 12497 ft | 249 kts | 340° |
| 2026-05-08 07:18 | 39.67305 | 32.78069 | 12294 ft | 246 kts | 1° |
| 2026-05-08 07:18 | 39.68981 | 32.78510 | 12029 ft | 248 kts | 21° |
| 2026-05-08 07:18 | 39.70472 | 32.79652 | 11772 ft | 249 kts | 33° |
| 2026-05-08 07:18 | 39.71871 | 32.80983 | 11502 ft | 249 kts | 34° |
| 2026-05-08 07:19 | 39.73260 | 32.82325 | 11229 ft | 249 kts | 34° |
| 2026-05-08 07:19 | 39.74649 | 32.83661 | 10960 ft | 248 kts | 34° |
| 2026-05-08 07:19 | 39.76044 | 32.84996 | 10669 ft | 249 kts | 34° |
| 2026-05-08 07:19 | 39.77465 | 32.86345 | 10221 ft | 257 kts | 34° |
| 2026-05-08 07:20 | 39.78915 | 32.87718 | 9882 ft | 259 kts | 34° |
| 2026-05-08 07:20 | 39.80370 | 32.89095 | 9591 ft | 258 kts | 34° |
| 2026-05-08 07:20 | 39.81802 | 32.90452 | 9313 ft | 258 kts | 34° |
| 2026-05-08 07:20 | 39.83253 | 32.91825 | 9036 ft | 257 kts | 34° |
| 2026-05-08 07:21 | 39.84700 | 32.93197 | 8756 ft | 257 kts | 34° |
| 2026-05-08 07:21 | 39.86138 | 32.94559 | 8567 ft | 253 kts | 34° |
| 2026-05-08 07:21 | 39.87537 | 32.95886 | 8417 ft | 248 kts | 34° |
| 2026-05-08 07:21 | 39.89005 | 32.97045 | 8129 ft | 246 kts | 15° |
| 2026-05-08 07:22 | 39.90670 | 32.97115 | 7905 ft | 240 kts | 344° |
| 2026-05-08 07:22 | 39.92142 | 32.96110 | 7583 ft | 241 kts | 319° |
| 2026-05-08 07:22 | 39.93229 | 32.94506 | 7302 ft | 232 kts | 307° |
| 2026-05-08 07:22 | 39.94159 | 32.92827 | 6981 ft | 225 kts | 306° |
| 2026-05-08 07:23 | 39.95058 | 32.91193 | 6549 ft | 223 kts | 306° |
| 2026-05-08 07:23 | 39.95948 | 32.89571 | 6200 ft | 216 kts | 306° |
| 2026-05-08 07:23 | 39.97046 | 32.88338 | 5973 ft | 203 kts | 341° |
| 2026-05-08 07:23 | 39.98370 | 32.88395 | 5883 ft | 190 kts | 21° |
| 2026-05-08 07:24 | 39.99527 | 32.89192 | 5645 ft | 188 kts | 27° |
| 2026-05-08 07:24 | 40.00643 | 32.90046 | 5406 ft | 183 kts | 30° |
| 2026-05-08 07:24 | 40.01647 | 32.90952 | 5283 ft | 164 kts | 34° |
| 2026-05-08 07:24 | 40.02497 | 32.91809 | 5308 ft | 152 kts | 36° |
| 2026-05-08 07:25 | 40.03344 | 32.92693 | 5101 ft | 158 kts | 37° |
| 2026-05-08 07:25 | 40.04195 | 32.93553 | 4896 ft | 152 kts | 31° |
| 2026-05-08 07:25 | 40.05937 | 32.95033 | 4443 ft | 148 kts | 34° |
| 2026-05-08 07:26 | 40.06755 | 32.95809 | 4204 ft | 145 kts | 36° |
| 2026-05-08 07:26 | 40.07542 | 32.96580 | 3982 ft | 140 kts | 36° |
| 2026-05-08 07:26 | 40.08338 | 32.97352 | 3719 ft | 145 kts | 36° |
| 2026-05-08 07:26 | 40.09158 | 32.98128 | 3456 ft | 145 kts | 34° |
| 2026-05-08 07:27 | 40.09969 | 32.98902 | 3210 ft | 143 kts | 36° |
| 2026-05-08 07:27 | 40.10750 | 32.99651 | 3125 ft | 132 kts | 36° |
| 2026-05-08 07:27 | 40.11382 | 33.00258 | 3131 ft | 85 kts | 36° |
| 2026-05-08 07:27 | 40.11679 | 33.00536 | 3139 ft | 25 kts | 34° |
| 2026-05-08 07:28 | 40.11826 | 33.00638 | 3142 ft | 23 kts | 13° |
| 2026-05-08 07:28 | 40.11973 | 33.00661 | 3145 ft | 18 kts | 7° |
| 2026-05-08 07:28 | 40.12071 | 33.00655 | 3146 ft | 12 kts | 312° |
| 2026-05-08 07:28 | 40.12030 | 33.00568 | 3145 ft | 13 kts | 215° |
| 2026-05-08 07:29 | 40.11960 | 33.00502 | 3143 ft | 12 kts | 215° |
| 2026-05-08 07:29 | 40.11892 | 33.00435 | 3141 ft | 12 kts | 216° |
| 2026-05-08 07:29 | 40.11820 | 33.00367 | 3139 ft | 14 kts | 216° |
| 2026-05-08 07:29 | 40.11730 | 33.00281 | 3137 ft | 17 kts | 216° |
| 2026-05-08 07:30 | 40.11634 | 33.00189 | 3134 ft | 17 kts | 216° |
| 2026-05-08 07:30 | 40.11639 | 33.00053 | 3127 ft | 19 kts | 306° |
| 2026-05-08 07:30 | 40.11723 | 32.99905 | 3120 ft | 21 kts | 306° |
| 2026-05-08 07:30 | 40.11798 | 32.99748 | 3112 ft | 20 kts | 275° |
| 2026-05-08 07:31 | 40.11784 | 32.99573 | 3112 ft | 19 kts | 268° |
| 2026-05-08 07:31 | 40.11774 | 32.99448 | 3112 ft | 10 kts | 259° |
| 2026-05-08 07:31 | 40.11723 | 32.99421 | 3112 ft | 6 kts | 169° |
| 2026-05-08 07:31 | 40.11704 | 32.99426 | 3112 ft | 0 kts | 169° |